Weather reports worldwide

Advertisment
Villardeciervos, Spain (8125): temperature & dewpoint: 08.07.2020 12:00:00 - 14.07.2020 12:00:00 (CEST)Villardeciervos, Spain (8125): wind speed & gusts: 08.07.2020 12:00:00 - 14.07.2020 12:00:00 (CEST)Villardeciervos, Spain (8125): wind direction: 08.07.2020 12:00:00 - 14.07.2020 12:00:00 (CEST)Villardeciervos, Spain (8125): visibility: 08.07.2020 12:00:00 - 14.07.2020 12:00:00 (CEST)Villardeciervos, Spain (8125): sunshine duration: 08.07.2020 12:00:00 - 14.07.2020 12:00:00 (CEST)Villardeciervos, Spain (8125): precipitation: 08.07.2020 12:00:00 - 14.07.2020 12:00:00 (CEST)
Date & Time tt [°C] td [°C] ff [km/h] ff [kn] fx [km/h] fx [kn] dd vv [km] sd [min] rr [mm]
14.07.2020 12:00:00 - - - - - - - - - -
14.07.2020 11:00:00 20,5 5,3 6 4 14 8 NE 20 60 0,0
14.07.2020 10:00:00 18,6 6,4 5 3 20 11 NE 20 60 0,0
14.07.2020 09:00:00 15,9 6,5 7 4 15 8 ENE 20 32 0,0
14.07.2020 08:00:00 12,5 7,1 1 1 7 4 NE 20 14 -
14.07.2020 07:00:00 10,6 6,5 3 2 6 3 S 20 0 0,0
14.07.2020 06:00:00 12,5 6,7 2 1 5 3 S 20 0 0,0
14.07.2020 05:00:00 13,8 5,6 2 1 8 5 NNE 20 0 0,0
14.07.2020 04:00:00 14,3 5,1 0 0 6 3 N 20 0 0,0
14.07.2020 03:00:00 15,3 3,0 2 1 10 5 E 20 0 0,0
14.07.2020 02:00:00 16,1 1,1 5 3 10 5 ENE 20 0 -
14.07.2020 01:00:00 17,7 0,9 3 2 29 16 E 20 0 0,0
14.07.2020 00:00:00 19,8 0,2 11 6 24 13 E 20 0 0,0
13.07.2020 23:00:00 21,5 9,0 11 6 23 13 E 20 0 0,0
13.07.2020 22:00:00 23,5 11,9 3 2 6 4 S 20 7 0,0
13.07.2020 21:00:00 27,8 10,0 2 1 13 7 ESE 20 60 0,0
13.07.2020 20:00:00 28,9 7,4 9 5 21 11 ESE 20 60 -
13.07.2020 19:00:00 29,7 8,1 8 4 20 11 ENE 20 60 0,0
13.07.2020 18:00:00 29,6 8,1 9 5 24 13 ESE 20 60 0,0
13.07.2020 17:00:00 30,0 10,0 9 5 27 15 NNE 20 60 0,0
13.07.2020 16:00:00 29,7 11,7 6 3 25 13 N 20 60 0,0
13.07.2020 15:00:00 28,2 11,3 8 5 23 13 NE 20 60 0,0
13.07.2020 14:00:00 26,4 11,7 11 6 27 15 E 20 60 -
13.07.2020 13:00:00 25,5 13,4 10 5 27 14 ENE 20 60 0,0
13.07.2020 12:00:00 23,5 12,4 10 5 25 14 ENE 20 60 0,0
13.07.2020 11:00:00 21,4 11,7 11 6 27 15 ENE 20 60 0,0
13.07.2020 10:00:00 19,7 12,2 9 5 24 13 ENE 20 60 0,0
13.07.2020 09:00:00 17,7 13,3 6 3 14 8 NNE 20 60 0,0
13.07.2020 08:00:00 14,8 12,8 4 2 10 5 NNE 20 17 -
13.07.2020 07:00:00 13,8 12,2 2 1 51 28 NNE 20 0 0,0
13.07.2020 06:00:00 13,3 11,0 2 1 6 4 E 20 0 0,0
13.07.2020 05:00:00 14,6 12,3 2 1 7 4 SSW 20 0 0,0
13.07.2020 04:00:00 15,9 13,2 2 1 6 3 S 20 0 0,0
13.07.2020 03:00:00 16,6 13,4 3 1 7 4 NE 20 0 0,0
13.07.2020 02:00:00 17,9 13,2 1 1 15 8 ESE 20 0 -
13.07.2020 01:00:00 19,3 13,3 5 3 27 15 NE 20 0 0,0
13.07.2020 00:00:00 21,2 13,9 9 5 29 16 NE 20 0 0,0
12.07.2020 23:00:00 23,8 13,4 9 5 23 13 NNE 20 0 0,0
12.07.2020 22:00:00 25,7 12,8 1 1 15 8 SE 20 2 0,0
12.07.2020 21:00:00 29,0 13,3 2 1 6 4 SE 16 54 0,0
12.07.2020 20:00:00 30,3 11,3 4 2 10 6 NNE 20 60 -
12.07.2020 19:00:00 30,1 10,0 4 2 16 9 ENE 20 60 0,0
12.07.2020 18:00:00 28,4 11,0 8 5 21 11 NNW 20 44 0,0
12.07.2020 17:00:00 29,5 10,0 9 5 21 12 WNW 20 58 0,0
12.07.2020 16:00:00 29,8 10,4 4 2 21 11 S 20 60 0,0
12.07.2020 15:00:00 28,6 9,8 5 3 17 9 SE 20 60 0,0
12.07.2020 14:00:00 27,3 10,5 6 3 18 10 NE 20 60 -
12.07.2020 13:00:00 26,1 11,4 8 4 19 11 ENE 20 60 0,0
12.07.2020 12:00:00 24,7 13,0 8 4 17 9 NNE 20 60 0,0
12.07.2020 11:00:00 22,9 13,4 8 5 19 10 NNE 20 60 0,0
12.07.2020 10:00:00 20,8 14,0 5 3 - - NE 20 - -
12.07.2020 09:00:00 - - - - - - - - - -
12.07.2020 08:00:00 - - - - - - - - - -
12.07.2020 07:00:00 - - - - - - - - - -
12.07.2020 06:00:00 - - - - - - - - - -
12.07.2020 05:00:00 - - - - - - - - - -
12.07.2020 04:00:00 - - - - - - - - - -
12.07.2020 03:00:00 - - - - - - - - - -
12.07.2020 02:00:00 - - - - - - - - - -
12.07.2020 01:00:00 - - - - - - - - - -
12.07.2020 00:00:00 19,3 12,3 22 12 84 45 SW 20 0 0,0
11.07.2020 23:00:00 22,6 10,8 3 1 12 7 S 20 0 0,0
11.07.2020 22:00:00 25,2 11,8 0 0 5 3 N 20 4 0,0
11.07.2020 21:00:00 28,9 11,0 4 2 10 5 SE 20 46 0,0
11.07.2020 20:00:00 31,9 8,3 6 3 16 9 ENE 20 60 -
11.07.2020 19:00:00 32,4 8,7 5 3 18 10 N 20 60 0,0
11.07.2020 18:00:00 32,1 9,6 6 3 18 10 NE 20 60 0,0
11.07.2020 17:00:00 31,5 10,3 7 4 22 12 ENE 20 60 0,0
11.07.2020 16:00:00 30,4 8,8 8 5 24 13 ENE 20 60 0,0
11.07.2020 15:00:00 28,9 9,6 10 5 25 13 E 20 60 0,0
11.07.2020 14:00:00 26,8 8,7 11 6 25 14 E 20 60 -
11.07.2020 13:00:00 24,7 9,4 11 6 25 14 E 20 60 0,0
11.07.2020 12:00:00 23,1 9,4 11 6 22 12 E 20 60 0,0
11.07.2020 11:00:00 20,8 8,8 9 5 22 12 NE 20 60 0,0
11.07.2020 10:00:00 18,6 9,0 9 5 19 11 NE 20 60 0,0
11.07.2020 09:00:00 15,9 10,6 6 3 12 6 NNE 20 60 0,0
11.07.2020 08:00:00 12,9 9,7 1 1 6 4 E 20 17 -
11.07.2020 07:00:00 11,9 9,3 2 1 53 28 SSE 20 0 0,0
11.07.2020 06:00:00 11,9 9,0 1 1 6 3 NNE 20 0 0,0
11.07.2020 05:00:00 12,5 9,7 2 1 9 5 NNE 20 0 0,0
11.07.2020 04:00:00 13,5 9,9 3 2 11 6 NE 20 0 0,0
11.07.2020 03:00:00 14,7 10,2 5 3 16 9 ENE 20 0 0,0
11.07.2020 02:00:00 15,9 10,4 6 3 15 8 E 20 0 -
11.07.2020 01:00:00 17,5 10,6 9 5 22 12 E 20 0 0,0
11.07.2020 00:00:00 19,7 10,4 11 6 32 17 ENE 20 0 0,0
10.07.2020 23:00:00 22,5 11,0 14 8 32 17 E 20 0 0,0
10.07.2020 22:00:00 23,8 11,8 4 2 6 3 S 20 0 0,0
10.07.2020 21:00:00 27,4 10,5 4 2 10 5 SSE 20 38 0,0
10.07.2020 20:00:00 30,2 8,5 3 2 14 8 S 20 51 -
10.07.2020 19:00:00 31,1 7,6 8 5 16 8 SE 20 58 0,0
10.07.2020 18:00:00 31,8 9,3 6 3 18 10 NNE 20 52 0,0
10.07.2020 17:00:00 31,7 8,0 3 2 18 10 S 20 60 0,0
10.07.2020 16:00:00 30,9 8,5 8 4 26 14 ENE 20 60 0,0
10.07.2020 15:00:00 29,5 8,0 11 6 25 13 SE 20 60 0,0
10.07.2020 14:00:00 28,7 8,4 10 5 27 15 E 20 60 -
10.07.2020 13:00:00 27,6 9,4 5 3 22 12 SE 20 60 0,0
10.07.2020 12:00:00 26,1 10,3 5 3 20 11 NE 20 60 0,0
10.07.2020 11:00:00 24,2 11,6 7 4 19 10 ENE 20 60 0,0
10.07.2020 10:00:00 22,0 12,0 6 3 14 8 NE 20 60 0,0
10.07.2020 09:00:00 18,4 11,7 4 2 9 5 NNE 20 60 0,0
10.07.2020 08:00:00 13,4 11,1 1 1 3 2 NW 20 18 -
10.07.2020 07:00:00 12,9 10,3 0 0 6 3 N 20 0 0,0
10.07.2020 06:00:00 12,8 10,3 3 1 8 4 SSW 20 0 0,0
10.07.2020 05:00:00 15,0 11,2 0 0 5 3 N 20 0 0,0
10.07.2020 04:00:00 16,0 11,3 3 1 6 3 E 20 0 0,0
10.07.2020 03:00:00 17,3 11,8 3 1 14 8 NNW 20 0 0,0
10.07.2020 02:00:00 18,5 11,6 3 2 11 6 ESE 20 0 -
10.07.2020 01:00:00 19,5 11,8 6 3 10 6 S 20 0 0,0
10.07.2020 00:00:00 20,6 12,3 5 3 11 6 N 20 0 0,0
09.07.2020 23:00:00 22,9 9,7 5 3 35 19 NE 20 0 0,0
09.07.2020 22:00:00 25,1 8,5 13 7 31 17 NE 20 8 0,0
09.07.2020 21:00:00 28,0 10,2 3 2 14 8 NW 20 31 0,0
09.07.2020 20:00:00 31,3 8,3 6 3 29 16 NW 20 60 -
09.07.2020 19:00:00 31,2 6,2 16 9 29 16 WNW 20 60 0,0
09.07.2020 18:00:00 - - - - - - - - - -
09.07.2020 17:00:00 - - - - - - - - - -
09.07.2020 16:00:00 - - - - - - - - - -
09.07.2020 15:00:00 - - - - - - - - - -
09.07.2020 14:00:00 31,0 9,3 8 4 20 11 ENE 20 60 -
09.07.2020 13:00:00 29,5 9,6 8 4 17 9 NNE 20 60 0,0
09.07.2020 12:00:00 27,1 8,9 6 3 16 9 ENE 20 60 0,0
09.07.2020 11:00:00 25,0 10,4 6 3 16 9 NE 20 60 0,0
09.07.2020 10:00:00 22,2 11,0 7 4 16 9 ENE 20 60 0,0
09.07.2020 09:00:00 18,5 13,0 2 1 8 4 N 20 60 0,4
09.07.2020 08:00:00 13,3 10,0 3 2 5 3 S 20 18 -
09.07.2020 07:00:00 12,8 9,3 3 1 9 5 SSW 20 0 0,0
09.07.2020 06:00:00 13,7 9,9 5 3 9 5 SSW 20 0 0,2
09.07.2020 05:00:00 13,7 9,9 4 2 6 4 SSW 20 0 0,0
09.07.2020 04:00:00 16,2 10,5 3 1 6 4 SSW 20 0 0,0
09.07.2020 03:00:00 17,2 10,0 1 1 6 3 SE 20 0 0,0
09.07.2020 02:00:00 17,6 10,8 3 1 8 4 ESE 7 0 -
09.07.2020 01:00:00 19,1 10,4 3 2 13 7 SSW 20 0 0,0
09.07.2020 00:00:00 20,9 9,2 4 2 26 14 N 20 0 0,0
08.07.2020 23:00:00 21,7 8,5 14 7 53 29 ENE 20 0 0,0
08.07.2020 22:00:00 22,3 8,4 8 4 29 16 SE 20 0 0,0
08.07.2020 21:00:00 23,8 6,1 7 4 37 20 ENE 20 0 0,2
08.07.2020 20:00:00 23,9 7,6 13 7 32 17 N 20 11 -
08.07.2020 19:00:00 24,5 8,0 6 3 27 15 NNE 20 0 0,0
08.07.2020 18:00:00 22,8 12,7 10 5 34 18 ENE 20 0 0,0
08.07.2020 17:00:00 31,3 10,0 8 4 23 12 E 7 30 0,0
08.07.2020 16:00:00 35,7 6,8 8 5 23 12 N 20 60 0,0
08.07.2020 15:00:00 33,5 5,9 5 3 22 12 NE 20 60 0,0
08.07.2020 14:00:00 31,8 6,8 8 4 22 12 NE 20 60 -
08.07.2020 13:00:00 29,5 6,2 6 4 18 10 E 20 60 0,0
08.07.2020 12:00:00 27,7 7,0 9 5 24 13 ENE 5 60 0,0

tt = temperature
td = dewpoint
ff = wind speed
fx = gusts
dd = wind direction
vv = visibility
sd = sunshine duration
rr = precipitation

Next stations